Archival Weather

NSFA McMurdo Sound

NSFA McMurdo Sound, Antarctica (NZCM)

Report from: Friday, September 23, 2022 9:32 PM UTC
Current time: Sunday, December 4, 2022 11:29 AM UTC

Current weather
Weather history
Weather forecast

Present weatherLight snow, freezing fog
Temperature-13.7°C (7.3°F)
Wind chill-24.3°C (-11.7°F)
Dew point-16.5°C (2.3°F)
Winds 16 kts (8.2 m/s, 18.4 mph) Southeast (140°)
Wind gusts 23 kts (11.8 m/s, 26.5 mph)
Visibility0.6 mi. (0.9 km)
Clouds Ceiling: Vertical visibility 800 ft. (244 m)
Altimeter28.65 in.Hg (970 mB)
Precip. events Snow ended 9:28 PM
Snow began 9:32 PM
Relative humidity79 %
Density altitude-2,076 ft. (-633 m)
Sea-level pressure107.1 kPa (1071 mB, 31.62 in.Hg)
Remarks Fully automated report
System requires maintenance
Special weather observation
Automated weather observing station with precipitation discriminator
Flight conditions Low Instrument Meteorological Conditions
Raw dataSPECI NZCM 232132Z AUTO 14016G23KT 0900 -SN FZFG VV008 M14/M17 A2865 RMK AO2 SNE2128B2132 SLP707 T11371165 $
An error has occurred. This application may no longer respond until reloaded. Reload 🗙